sensor_id;sensor_type;location;lat;lon;timestamp;pressure;altitude;pressure_sealevel;temperature
74539;BMP180;66042;51.090;-115.340;2023-05-27T00:00:29;86549.40;;;19.42
74539;BMP180;66042;51.090;-115.340;2023-05-27T00:02:59;86547.20;;;19.40
74539;BMP180;66042;51.090;-115.340;2023-05-27T00:05:29;86548.20;;;19.40
74539;BMP180;66042;51.090;-115.340;2023-05-27T00:07:56;86550.20;;;19.40
74539;BMP180;66042;51.090;-115.340;2023-05-27T00:10:23;86545.00;;;19.40
74539;BMP180;66042;51.090;-115.340;2023-05-27T00:12:50;86545.20;;;19.40
74539;BMP180;66042;51.090;-115.340;2023-05-27T00:15:18;86546.00;;;19.40
74539;BMP180;66042;51.090;-115.340;2023-05-27T00:17:45;86544.00;;;19.40
74539;BMP180;66042;51.090;-115.340;2023-05-27T00:20:12;86542.40;;;19.40
74539;BMP180;66042;51.090;-115.340;2023-05-27T00:22:39;86539.40;;;19.40
74539;BMP180;66042;51.090;-115.340;2023-05-27T00:25:07;86540.20;;;19.40
74539;BMP180;66042;51.090;-115.340;2023-05-27T00:27:34;86538.20;;;19.40
74539;BMP180;66042;51.090;-115.340;2023-05-27T00:30:01;86535.00;;;19.44
74539;BMP180;66042;51.090;-115.340;2023-05-27T00:32:29;86530.40;;;19.86
74539;BMP180;66042;51.090;-115.340;2023-05-27T00:34:55;86518.60;;;21.56
74539;BMP180;66042;51.090;-115.340;2023-05-27T00:37:22;86526.60;;;23.38
74539;BMP180;66042;51.090;-115.340;2023-05-27T00:39:49;86521.40;;;24.10
74539;BMP180;66042;51.090;-115.340;2023-05-27T00:42:16;86524.20;;;25.12
74539;BMP180;66042;51.090;-115.340;2023-05-27T00:44:43;86530.40;;;26.02
74539;BMP180;66042;51.090;-115.340;2023-05-27T00:47:10;86528.40;;;25.90
74539;BMP180;66042;51.090;-115.340;2023-05-27T00:49:38;86532.60;;;25.80
74539;BMP180;66042;51.090;-115.340;2023-05-27T00:52:06;86534.00;;;25.26
74539;BMP180;66042;51.090;-115.340;2023-05-27T00:54:33;86527.20;;;24.78
74539;BMP180;66042;51.090;-115.340;2023-05-27T00:57:01;86527.00;;;24.40
74539;BMP180;66042;51.090;-115.340;2023-05-27T00:59:32;86522.40;;;24.10
74539;BMP180;66042;51.090;-115.340;2023-05-27T01:02:00;86522.00;;;23.80
74539;BMP180;66042;51.090;-115.340;2023-05-27T01:04:27;86522.40;;;23.60
74539;BMP180;66042;51.090;-115.340;2023-05-27T01:07:54;86524.80;;;23.30
74539;BMP180;66042;51.090;-115.340;2023-05-27T01:10:23;86525.40;;;23.04
74539;BMP180;66042;51.090;-115.340;2023-05-27T01:13:10;86522.20;;;22.80
74539;BMP180;66042;51.090;-115.340;2023-05-27T01:15:40;86520.60;;;22.60
74539;BMP180;66042;51.090;-115.340;2023-05-27T01:18:09;86521.20;;;22.40
74539;BMP180;66042;51.090;-115.340;2023-05-27T01:20:36;86519.60;;;22.20
74539;BMP180;66042;51.090;-115.340;2023-05-27T01:23:08;86517.60;;;22.00
74539;BMP180;66042;51.090;-115.340;2023-05-27T01:25:36;86520.00;;;21.80
74539;BMP180;66042;51.090;-115.340;2023-05-27T01:28:03;86516.60;;;21.70
74539;BMP180;66042;51.090;-115.340;2023-05-27T01:30:30;86513.80;;;21.60
74539;BMP180;66042;51.090;-115.340;2023-05-27T01:33:25;86514.20;;;21.50
74539;BMP180;66042;51.090;-115.340;2023-05-27T01:36:06;86515.80;;;21.40
74539;BMP180;66042;51.090;-115.340;2023-05-27T01:38:36;86516.80;;;21.36
74539;BMP180;66042;51.090;-115.340;2023-05-27T01:41:09;86514.00;;;21.30
74539;BMP180;66042;51.090;-115.340;2023-05-27T01:43:40;86513.80;;;21.40
74539;BMP180;66042;51.090;-115.340;2023-05-27T01:46:07;86514.00;;;21.60
74539;BMP180;66042;51.090;-115.340;2023-05-27T01:48:35;86513.20;;;21.52
74539;BMP180;66042;51.090;-115.340;2023-05-27T01:51:02;86512.60;;;21.40
74539;BMP180;66042;51.090;-115.340;2023-05-27T01:53:29;86507.80;;;21.30
74539;BMP180;66042;51.090;-115.340;2023-05-27T01:55:56;86510.40;;;21.10
74539;BMP180;66042;51.090;-115.340;2023-05-27T01:58:24;86513.80;;;20.96
74539;BMP180;66042;51.090;-115.340;2023-05-27T02:00:51;86512.00;;;20.80
74539;BMP180;66042;51.090;-115.340;2023-05-27T02:03:17;86510.60;;;20.62
74539;BMP180;66042;51.090;-115.340;2023-05-27T02:05:44;86509.80;;;20.50
74539;BMP180;66042;51.090;-115.340;2023-05-27T02:08:11;86508.60;;;20.50
74539;BMP180;66042;51.090;-115.340;2023-05-27T02:10:38;86511.20;;;20.40
74539;BMP180;66042;51.090;-115.340;2023-05-27T02:13:05;86512.40;;;20.30
74539;BMP180;66042;51.090;-115.340;2023-05-27T02:15:32;86515.40;;;20.20
74539;BMP180;66042;51.090;-115.340;2023-05-27T02:17:59;86512.20;;;20.10
74539;BMP180;66042;51.090;-115.340;2023-05-27T02:20:27;86513.60;;;19.98
74539;BMP180;66042;51.090;-115.340;2023-05-27T02:22:55;86511.60;;;19.80
74539;BMP180;66042;51.090;-115.340;2023-05-27T02:25:22;86512.20;;;19.72
74539;BMP180;66042;51.090;-115.340;2023-05-27T02:27:49;86513.40;;;19.66
74539;BMP180;66042;51.090;-115.340;2023-05-27T02:30:18;86514.80;;;19.60
74539;BMP180;66042;51.090;-115.340;2023-05-27T02:32:46;86514.00;;;19.50
74539;BMP180;66042;51.090;-115.340;2023-05-27T02:35:16;86512.00;;;19.40
74539;BMP180;66042;51.090;-115.340;2023-05-27T02:37:42;86509.40;;;19.30
74539;BMP180;66042;51.090;-115.340;2023-05-27T02:40:09;86510.00;;;19.20
74539;BMP180;66042;51.090;-115.340;2023-05-27T02:42:37;86507.80;;;19.10
74539;BMP180;66042;51.090;-115.340;2023-05-27T02:45:05;86513.00;;;19.08
74539;BMP180;66042;51.090;-115.340;2023-05-27T02:47:32;86511.40;;;19.00
74539;BMP180;66042;51.090;-115.340;2023-05-27T02:49:59;86507.60;;;18.90
74539;BMP180;66042;51.090;-115.340;2023-05-27T02:52:26;86507.20;;;18.80
74539;BMP180;66042;51.090;-115.340;2023-05-27T02:54:53;86507.20;;;18.72
74539;BMP180;66042;51.090;-115.340;2023-05-27T02:57:20;86506.40;;;18.70
74539;BMP180;66042;51.090;-115.340;2023-05-27T02:59:47;86506.40;;;18.60
74539;BMP180;66042;51.090;-115.340;2023-05-27T03:02:14;86511.60;;;18.60
74539;BMP180;66042;51.090;-115.340;2023-05-27T03:04:41;86511.40;;;18.50
74539;BMP180;66042;51.090;-115.340;2023-05-27T03:07:08;86510.60;;;18.48
74539;BMP180;66042;51.090;-115.340;2023-05-27T03:09:34;86510.20;;;18.40
74539;BMP180;66042;51.090;-115.340;2023-05-27T03:12:01;86514.60;;;18.40
74539;BMP180;66042;51.090;-115.340;2023-05-27T03:14:29;86513.40;;;18.30
74539;BMP180;66042;51.090;-115.340;2023-05-27T03:16:55;86512.80;;;18.30
74539;BMP180;66042;51.090;-115.340;2023-05-27T03:19:22;86510.60;;;18.20
74539;BMP180;66042;51.090;-115.340;2023-05-27T03:21:50;86513.80;;;18.20
74539;BMP180;66042;51.090;-115.340;2023-05-27T03:24:19;86519.20;;;18.10
74539;BMP180;66042;51.090;-115.340;2023-05-27T03:26:46;86517.40;;;18.04
74539;BMP180;66042;51.090;-115.340;2023-05-27T03:29:12;86518.60;;;18.00
74539;BMP180;66042;51.090;-115.340;2023-05-27T03:31:39;86519.20;;;17.92
74539;BMP180;66042;51.090;-115.340;2023-05-27T03:34:06;86520.40;;;17.90
74539;BMP180;66042;51.090;-115.340;2023-05-27T03:36:34;86520.00;;;17.86
74539;BMP180;66042;51.090;-115.340;2023-05-27T03:39:01;86522.40;;;17.80
74539;BMP180;66042;51.090;-115.340;2023-05-27T03:41:28;86520.00;;;17.78
74539;BMP180;66042;51.090;-115.340;2023-05-27T03:43:54;86524.20;;;17.70
74539;BMP180;66042;51.090;-115.340;2023-05-27T03:46:21;86524.20;;;17.60
74539;BMP180;66042;51.090;-115.340;2023-05-27T03:48:48;86524.00;;;17.60
74539;BMP180;66042;51.090;-115.340;2023-05-27T03:51:14;86529.40;;;17.50
74539;BMP180;66042;51.090;-115.340;2023-05-27T03:53:41;86530.40;;;17.50
74539;BMP180;66042;51.090;-115.340;2023-05-27T03:56:08;86537.60;;;17.40
74539;BMP180;66042;51.090;-115.340;2023-05-27T03:58:36;86538.40;;;17.40
74539;BMP180;66042;51.090;-115.340;2023-05-27T04:01:03;86543.80;;;17.30
74539;BMP180;66042;51.090;-115.340;2023-05-27T04:03:30;86542.20;;;17.30
74539;BMP180;66042;51.090;-115.340;2023-05-27T04:05:58;86543.00;;;17.20
74539;BMP180;66042;51.090;-115.340;2023-05-27T04:08:26;86547.00;;;17.14
74539;BMP180;66042;51.090;-115.340;2023-05-27T04:10:54;86545.80;;;17.10
74539;BMP180;66042;51.090;-115.340;2023-05-27T04:13:23;86545.00;;;17.00
74539;BMP180;66042;51.090;-115.340;2023-05-27T04:15:50;86552.00;;;17.00
74539;BMP180;66042;51.090;-115.340;2023-05-27T04:18:20;86551.60;;;16.90
74539;BMP180;66042;51.090;-115.340;2023-05-27T04:20:47;86552.80;;;16.80
74539;BMP180;66042;51.090;-115.340;2023-05-27T04:23:16;86554.20;;;16.78
74539;BMP180;66042;51.090;-115.340;2023-05-27T04:25:43;86553.00;;;16.70
74539;BMP180;66042;51.090;-115.340;2023-05-27T04:28:10;86557.20;;;16.66
74539;BMP180;66042;51.090;-115.340;2023-05-27T04:30:37;86553.20;;;16.60
74539;BMP180;66042;51.090;-115.340;2023-05-27T04:33:06;86550.60;;;16.50
74539;BMP180;66042;51.090;-115.340;2023-05-27T04:35:34;86551.00;;;16.40
74539;BMP180;66042;51.090;-115.340;2023-05-27T04:38:01;86549.20;;;16.40
74539;BMP180;66042;51.090;-115.340;2023-05-27T04:40:28;86552.00;;;16.30
74539;BMP180;66042;51.090;-115.340;2023-05-27T04:43:00;86548.00;;;16.22
74539;BMP180;66042;51.090;-115.340;2023-05-27T04:45:27;86548.80;;;16.20
74539;BMP180;66042;51.090;-115.340;2023-05-27T04:47:56;86549.00;;;16.10
74539;BMP180;66042;51.090;-115.340;2023-05-27T04:50:24;86544.00;;;16.04
74539;BMP180;66042;51.090;-115.340;2023-05-27T04:52:51;86545.20;;;15.92
74539;BMP180;66042;51.090;-115.340;2023-05-27T04:55:19;86546.60;;;15.90
74539;BMP180;66042;51.090;-115.340;2023-05-27T04:57:46;86547.40;;;15.80
74539;BMP180;66042;51.090;-115.340;2023-05-27T05:00:19;86547.60;;;15.72
74539;BMP180;66042;51.090;-115.340;2023-05-27T05:03:03;86553.20;;;15.70
74539;BMP180;66042;51.090;-115.340;2023-05-27T05:05:30;86549.60;;;15.60
74539;BMP180;66042;51.090;-115.340;2023-05-27T05:07:59;86550.60;;;15.52
74539;BMP180;66042;51.090;-115.340;2023-05-27T05:10:26;86554.40;;;15.50
74539;BMP180;66042;51.090;-115.340;2023-05-27T05:12:53;86556.40;;;15.40
74539;BMP180;66042;51.090;-115.340;2023-05-27T05:15:20;86557.40;;;15.40
74539;BMP180;66042;51.090;-115.340;2023-05-27T05:17:46;86558.60;;;15.30
74539;BMP180;66042;51.090;-115.340;2023-05-27T05:20:13;86560.00;;;15.30
74539;BMP180;66042;51.090;-115.340;2023-05-27T05:22:40;86561.40;;;15.20
74539;BMP180;66042;51.090;-115.340;2023-05-27T05:25:07;86559.80;;;15.20
74539;BMP180;66042;51.090;-115.340;2023-05-27T05:27:34;86564.60;;;15.20
74539;BMP180;66042;51.090;-115.340;2023-05-27T05:30:03;86567.40;;;15.10
74539;BMP180;66042;51.090;-115.340;2023-05-27T05:32:31;86570.20;;;15.10
74539;BMP180;66042;51.090;-115.340;2023-05-27T05:34:57;86573.00;;;15.00
74539;BMP180;66042;51.090;-115.340;2023-05-27T05:37:24;86575.20;;;15.00
74539;BMP180;66042;51.090;-115.340;2023-05-27T05:39:53;86571.60;;;14.90
74539;BMP180;66042;51.090;-115.340;2023-05-27T05:42:20;86569.00;;;14.90
74539;BMP180;66042;51.090;-115.340;2023-05-27T05:44:47;86569.00;;;14.80
74539;BMP180;66042;51.090;-115.340;2023-05-27T05:47:14;86568.00;;;14.70
74539;BMP180;66042;51.090;-115.340;2023-05-27T05:49:41;86563.80;;;14.60
74539;BMP180;66042;51.090;-115.340;2023-05-27T05:52:07;86564.40;;;14.50
74539;BMP180;66042;51.090;-115.340;2023-05-27T05:54:34;86560.60;;;14.50
74539;BMP180;66042;51.090;-115.340;2023-05-27T05:57:02;86558.40;;;14.40
74539;BMP180;66042;51.090;-115.340;2023-05-27T05:59:29;86564.40;;;14.34
74539;BMP180;66042;51.090;-115.340;2023-05-27T06:01:57;86565.40;;;14.30
74539;BMP180;66042;51.090;-115.340;2023-05-27T06:04:24;86566.20;;;14.20
74539;BMP180;66042;51.090;-115.340;2023-05-27T06:06:51;86570.40;;;14.10
74539;BMP180;66042;51.090;-115.340;2023-05-27T06:09:18;86570.80;;;14.00
74539;BMP180;66042;51.090;-115.340;2023-05-27T06:11:45;86570.60;;;13.90
74539;BMP180;66042;51.090;-115.340;2023-05-27T06:14:11;86568.20;;;13.90
74539;BMP180;66042;51.090;-115.340;2023-05-27T06:16:38;86569.60;;;13.80
74539;BMP180;66042;51.090;-115.340;2023-05-27T06:19:06;86571.40;;;13.70
74539;BMP180;66042;51.090;-115.340;2023-05-27T06:21:33;86570.80;;;13.70
74539;BMP180;66042;51.090;-115.340;2023-05-27T06:24:00;86567.60;;;13.60
74539;BMP180;66042;51.090;-115.340;2023-05-27T06:26:27;86570.00;;;13.50
74539;BMP180;66042;51.090;-115.340;2023-05-27T06:28:54;86567.60;;;13.50
74539;BMP180;66042;51.090;-115.340;2023-05-27T06:31:21;86568.60;;;13.40
74539;BMP180;66042;51.090;-115.340;2023-05-27T06:33:47;86565.80;;;13.40
74539;BMP180;66042;51.090;-115.340;2023-05-27T06:36:14;86562.40;;;13.30
74539;BMP180;66042;51.090;-115.340;2023-05-27T06:38:42;86563.80;;;13.20
74539;BMP180;66042;51.090;-115.340;2023-05-27T06:41:09;86562.80;;;13.20
74539;BMP180;66042;51.090;-115.340;2023-05-27T06:43:36;86561.40;;;13.10
74539;BMP180;66042;51.090;-115.340;2023-05-27T06:46:03;86556.80;;;13.10
74539;BMP180;66042;51.090;-115.340;2023-05-27T06:48:30;86554.40;;;13.00
74539;BMP180;66042;51.090;-115.340;2023-05-27T06:50:59;86555.00;;;12.90
74539;BMP180;66042;51.090;-115.340;2023-05-27T06:53:25;86554.60;;;12.90
74539;BMP180;66042;51.090;-115.340;2023-05-27T06:55:52;86559.40;;;12.80
74539;BMP180;66042;51.090;-115.340;2023-05-27T06:58:19;86561.20;;;12.80
74539;BMP180;66042;51.090;-115.340;2023-05-27T07:00:46;86566.00;;;12.70
74539;BMP180;66042;51.090;-115.340;2023-05-27T07:03:13;86569.40;;;12.70
74539;BMP180;66042;51.090;-115.340;2023-05-27T07:05:40;86569.20;;;12.70
74539;BMP180;66042;51.090;-115.340;2023-05-27T07:08:06;86567.00;;;12.60
74539;BMP180;66042;51.090;-115.340;2023-05-27T07:10:34;86564.40;;;12.60
74539;BMP180;66042;51.090;-115.340;2023-05-27T07:13:02;86569.20;;;12.60
74539;BMP180;66042;51.090;-115.340;2023-05-27T07:15:29;86563.20;;;12.50
74539;BMP180;66042;51.090;-115.340;2023-05-27T07:17:57;86565.60;;;12.50
74539;BMP180;66042;51.090;-115.340;2023-05-27T07:20:25;86561.80;;;12.40
74539;BMP180;66042;51.090;-115.340;2023-05-27T07:22:52;86562.80;;;12.40
74539;BMP180;66042;51.090;-115.340;2023-05-27T07:25:19;86559.60;;;12.30
74539;BMP180;66042;51.090;-115.340;2023-05-27T07:27:46;86558.00;;;12.30
74539;BMP180;66042;51.090;-115.340;2023-05-27T07:30:13;86564.40;;;12.20
74539;BMP180;66042;51.090;-115.340;2023-05-27T07:32:40;86560.80;;;12.20
74539;BMP180;66042;51.090;-115.340;2023-05-27T07:35:07;86562.80;;;12.10
74539;BMP180;66042;51.090;-115.340;2023-05-27T07:37:34;86566.20;;;12.10
74539;BMP180;66042;51.090;-115.340;2023-05-27T07:40:01;86573.00;;;12.00
74539;BMP180;66042;51.090;-115.340;2023-05-27T07:42:29;86574.60;;;12.00
74539;BMP180;66042;51.090;-115.340;2023-05-27T07:44:56;86575.60;;;11.90
74539;BMP180;66042;51.090;-115.340;2023-05-27T07:47:23;86574.80;;;11.90
74539;BMP180;66042;51.090;-115.340;2023-05-27T07:49:50;86571.20;;;11.90
74539;BMP180;66042;51.090;-115.340;2023-05-27T07:52:17;86572.00;;;11.84
74539;BMP180;66042;51.090;-115.340;2023-05-27T07:54:43;86579.00;;;11.80
74539;BMP180;66042;51.090;-115.340;2023-05-27T07:57:11;86576.40;;;11.80
74539;BMP180;66042;51.090;-115.340;2023-05-27T07:59:38;86578.40;;;11.74
74539;BMP180;66042;51.090;-115.340;2023-05-27T08:02:05;86578.20;;;11.70
74539;BMP180;66042;51.090;-115.340;2023-05-27T08:04:32;86582.20;;;11.70
74539;BMP180;66042;51.090;-115.340;2023-05-27T08:06:59;86579.40;;;11.70
74539;BMP180;66042;51.090;-115.340;2023-05-27T08:09:26;86578.20;;;11.70
74539;BMP180;66042;51.090;-115.340;2023-05-27T08:11:53;86580.40;;;11.64
74539;BMP180;66042;51.090;-115.340;2023-05-27T08:14:20;86579.60;;;11.60
74539;BMP180;66042;51.090;-115.340;2023-05-27T08:16:47;86579.40;;;11.60
74539;BMP180;66042;51.090;-115.340;2023-05-27T08:19:14;86582.40;;;11.60
74539;BMP180;66042;51.090;-115.340;2023-05-27T08:21:41;86582.00;;;11.54
74539;BMP180;66042;51.090;-115.340;2023-05-27T08:24:08;86577.20;;;11.50
74539;BMP180;66042;51.090;-115.340;2023-05-27T08:26:35;86578.60;;;11.50
74539;BMP180;66042;51.090;-115.340;2023-05-27T08:29:02;86582.20;;;11.50
74539;BMP180;66042;51.090;-115.340;2023-05-27T08:31:29;86579.20;;;11.42
74539;BMP180;66042;51.090;-115.340;2023-05-27T08:33:56;86582.20;;;11.40
74539;BMP180;66042;51.090;-115.340;2023-05-27T08:36:23;86584.40;;;11.40
74539;BMP180;66042;51.090;-115.340;2023-05-27T08:38:50;86585.20;;;11.40
74539;BMP180;66042;51.090;-115.340;2023-05-27T08:41:17;86585.60;;;11.40
74539;BMP180;66042;51.090;-115.340;2023-05-27T08:43:45;86585.20;;;11.40
74539;BMP180;66042;51.090;-115.340;2023-05-27T08:46:13;86586.40;;;11.40
74539;BMP180;66042;51.090;-115.340;2023-05-27T08:48:42;86588.40;;;11.40
74539;BMP180;66042;51.090;-115.340;2023-05-27T08:51:10;86588.60;;;11.40
74539;BMP180;66042;51.090;-115.340;2023-05-27T08:53:38;86591.40;;;11.30
74539;BMP180;66042;51.090;-115.340;2023-05-27T08:56:06;86591.60;;;11.32
74539;BMP180;66042;51.090;-115.340;2023-05-27T08:58:35;86588.80;;;11.32
74539;BMP180;66042;51.090;-115.340;2023-05-27T09:01:02;86585.00;;;11.30
74539;BMP180;66042;51.090;-115.340;2023-05-27T09:03:29;86586.00;;;11.32
74539;BMP180;66042;51.090;-115.340;2023-05-27T09:05:56;86586.20;;;11.30
74539;BMP180;66042;51.090;-115.340;2023-05-27T09:08:23;86586.20;;;11.30
74539;BMP180;66042;51.090;-115.340;2023-05-27T09:10:50;86589.80;;;11.30
74539;BMP180;66042;51.090;-115.340;2023-05-27T09:13:27;86588.20;;;11.30
74539;BMP180;66042;51.090;-115.340;2023-05-27T09:16:02;86590.40;;;11.30
74539;BMP180;66042;51.090;-115.340;2023-05-27T09:18:35;86596.60;;;11.30
74539;BMP180;66042;51.090;-115.340;2023-05-27T09:21:02;86596.80;;;11.20
74539;BMP180;66042;51.090;-115.340;2023-05-27T09:23:29;86593.60;;;11.20
74539;BMP180;66042;51.090;-115.340;2023-05-27T09:25:56;86592.60;;;11.20
74539;BMP180;66042;51.090;-115.340;2023-05-27T09:28:25;86591.80;;;11.20
74539;BMP180;66042;51.090;-115.340;2023-05-27T09:31:03;86584.80;;;11.20
74539;BMP180;66042;51.090;-115.340;2023-05-27T09:33:36;86582.00;;;11.20
74539;BMP180;66042;51.090;-115.340;2023-05-27T09:36:06;86580.20;;;11.20
74539;BMP180;66042;51.090;-115.340;2023-05-27T09:38:34;86580.80;;;11.20
74539;BMP180;66042;51.090;-115.340;2023-05-27T09:41:03;86579.60;;;11.20
74539;BMP180;66042;51.090;-115.340;2023-05-27T09:43:30;86582.80;;;11.20
74539;BMP180;66042;51.090;-115.340;2023-05-27T09:46:11;86589.00;;;11.20
74539;BMP180;66042;51.090;-115.340;2023-05-27T09:48:39;86589.20;;;11.20
74539;BMP180;66042;51.090;-115.340;2023-05-27T09:51:07;86590.40;;;11.20
74539;BMP180;66042;51.090;-115.340;2023-05-27T09:53:37;86590.20;;;11.18
74539;BMP180;66042;51.090;-115.340;2023-05-27T09:56:05;86590.60;;;11.10
74539;BMP180;66042;51.090;-115.340;2023-05-27T09:58:32;86587.60;;;10.88
74539;BMP180;66042;51.090;-115.340;2023-05-27T10:00:59;86588.00;;;10.74
74539;BMP180;66042;51.090;-115.340;2023-05-27T10:03:29;86584.40;;;10.70
74539;BMP180;66042;51.090;-115.340;2023-05-27T10:05:57;86587.80;;;10.74
74539;BMP180;66042;51.090;-115.340;2023-05-27T10:08:25;86585.40;;;10.78
74539;BMP180;66042;51.090;-115.340;2023-05-27T10:10:53;86583.60;;;10.80
74539;BMP180;66042;51.090;-115.340;2023-05-27T10:13:23;86582.80;;;10.80
74539;BMP180;66042;51.090;-115.340;2023-05-27T10:15:52;86582.60;;;10.80
74539;BMP180;66042;51.090;-115.340;2023-05-27T10:18:42;86580.60;;;10.82
74539;BMP180;66042;51.090;-115.340;2023-05-27T10:21:10;86582.20;;;10.84
74539;BMP180;66042;51.090;-115.340;2023-05-27T10:26:43;86582.00;;;10.80
74539;BMP180;66042;51.090;-115.340;2023-05-27T10:29:11;86581.60;;;10.80
74539;BMP180;66042;51.090;-115.340;2023-05-27T10:31:50;86577.40;;;10.80
74539;BMP180;66042;51.090;-115.340;2023-05-27T10:34:18;86576.60;;;10.80
74539;BMP180;66042;51.090;-115.340;2023-05-27T10:36:46;86577.80;;;10.74
74539;BMP180;66042;51.090;-115.340;2023-05-27T10:39:18;86580.20;;;10.70
74539;BMP180;66042;51.090;-115.340;2023-05-27T10:41:52;86579.80;;;10.70
74539;BMP180;66042;51.090;-115.340;2023-05-27T10:44:37;86579.20;;;10.70
74539;BMP180;66042;51.090;-115.340;2023-05-27T10:47:12;86574.80;;;10.60
74539;BMP180;66042;51.090;-115.340;2023-05-27T10:49:46;86571.80;;;10.50
74539;BMP180;66042;51.090;-115.340;2023-05-27T10:52:17;86573.40;;;10.44
74539;BMP180;66042;51.090;-115.340;2023-05-27T10:54:47;86575.60;;;10.40
74539;BMP180;66042;51.090;-115.340;2023-05-27T10:57:17;86575.00;;;10.50
74539;BMP180;66042;51.090;-115.340;2023-05-27T10:59:51;86571.80;;;10.40
74539;BMP180;66042;51.090;-115.340;2023-05-27T11:02:22;86573.40;;;10.40
74539;BMP180;66042;51.090;-115.340;2023-05-27T11:04:50;86574.60;;;10.30
74539;BMP180;66042;51.090;-115.340;2023-05-27T11:07:21;86574.40;;;10.30
74539;BMP180;66042;51.090;-115.340;2023-05-27T11:09:50;86569.20;;;10.30
74539;BMP180;66042;51.090;-115.340;2023-05-27T11:12:23;86565.80;;;10.20
74539;BMP180;66042;51.090;-115.340;2023-05-27T11:14:55;86562.80;;;10.10
74539;BMP180;66042;51.090;-115.340;2023-05-27T11:17:24;86557.40;;;10.10
74539;BMP180;66042;51.090;-115.340;2023-05-27T11:19:54;86555.40;;;10.10
74539;BMP180;66042;51.090;-115.340;2023-05-27T11:22:21;86554.60;;;10.00
74539;BMP180;66042;51.090;-115.340;2023-05-27T11:25:02;86550.40;;;9.80
74539;BMP180;66042;51.090;-115.340;2023-05-27T11:27:39;86545.40;;;9.70
74539;BMP180;66042;51.090;-115.340;2023-05-27T11:30:11;86542.20;;;9.70
74539;BMP180;66042;51.090;-115.340;2023-05-27T11:32:41;86538.00;;;9.70
74539;BMP180;66042;51.090;-115.340;2023-05-27T11:35:18;86544.60;;;9.80
74539;BMP180;66042;51.090;-115.340;2023-05-27T11:37:50;86539.40;;;9.90
74539;BMP180;66042;51.090;-115.340;2023-05-27T11:40:17;86537.40;;;9.90
74539;BMP180;66042;51.090;-115.340;2023-05-27T11:42:45;86535.20;;;9.90
74539;BMP180;66042;51.090;-115.340;2023-05-27T11:45:20;86531.40;;;9.90
74539;BMP180;66042;51.090;-115.340;2023-05-27T11:47:48;86531.40;;;10.00
74539;BMP180;66042;51.090;-115.340;2023-05-27T11:50:21;86530.60;;;10.00
74539;BMP180;66042;51.090;-115.340;2023-05-27T11:53:01;86527.00;;;9.98
74539;BMP180;66042;51.090;-115.340;2023-05-27T11:55:30;86522.80;;;9.90
74539;BMP180;66042;51.090;-115.340;2023-05-27T11:57:58;86524.40;;;9.90
74539;BMP180;66042;51.090;-115.340;2023-05-27T12:00:24;86525.00;;;9.90
74539;BMP180;66042;51.090;-115.340;2023-05-27T12:02:52;86525.80;;;9.80
74539;BMP180;66042;51.090;-115.340;2023-05-27T12:05:19;86527.60;;;9.80
74539;BMP180;66042;51.090;-115.340;2023-05-27T12:07:46;86527.40;;;9.80
74539;BMP180;66042;51.090;-115.340;2023-05-27T12:10:13;86525.20;;;9.82
74539;BMP180;66042;51.090;-115.340;2023-05-27T12:12:39;86529.60;;;9.80
74539;BMP180;66042;51.090;-115.340;2023-05-27T12:15:08;86528.20;;;9.80
74539;BMP180;66042;51.090;-115.340;2023-05-27T12:17:35;86531.60;;;9.88
74539;BMP180;66042;51.090;-115.340;2023-05-27T12:20:02;86529.00;;;9.82
74539;BMP180;66042;51.090;-115.340;2023-05-27T12:22:32;86532.40;;;9.80
74539;BMP180;66042;51.090;-115.340;2023-05-27T12:24:59;86531.60;;;9.80
74539;BMP180;66042;51.090;-115.340;2023-05-27T12:27:26;86531.80;;;9.80
74539;BMP180;66042;51.090;-115.340;2023-05-27T12:29:52;86531.60;;;9.78
74539;BMP180;66042;51.090;-115.340;2023-05-27T12:32:19;86532.00;;;9.70
74539;BMP180;66042;51.090;-115.340;2023-05-27T12:34:46;86527.60;;;9.70
74539;BMP180;66042;51.090;-115.340;2023-05-27T12:37:14;86529.00;;;9.70
74539;BMP180;66042;51.090;-115.340;2023-05-27T12:39:40;86529.00;;;9.70
74539;BMP180;66042;51.090;-115.340;2023-05-27T12:42:07;86528.60;;;9.70
74539;BMP180;66042;51.090;-115.340;2023-05-27T12:44:34;86531.40;;;9.70
74539;BMP180;66042;51.090;-115.340;2023-05-27T12:47:00;86531.20;;;9.70
74539;BMP180;66042;51.090;-115.340;2023-05-27T12:49:27;86528.80;;;9.60
74539;BMP180;66042;51.090;-115.340;2023-05-27T12:51:54;86530.20;;;9.60
74539;BMP180;66042;51.090;-115.340;2023-05-27T12:54:21;86530.40;;;9.54
74539;BMP180;66042;51.090;-115.340;2023-05-27T12:56:49;86533.40;;;9.50
74539;BMP180;66042;51.090;-115.340;2023-05-27T12:59:15;86530.80;;;9.50
74539;BMP180;66042;51.090;-115.340;2023-05-27T13:01:43;86530.00;;;9.50
74539;BMP180;66042;51.090;-115.340;2023-05-27T13:04:10;86529.40;;;9.50
74539;BMP180;66042;51.090;-115.340;2023-05-27T13:06:37;86531.00;;;9.48
74539;BMP180;66042;51.090;-115.340;2023-05-27T13:09:04;86532.80;;;9.44
74539;BMP180;66042;51.090;-115.340;2023-05-27T13:11:34;86532.40;;;9.40
74539;BMP180;66042;51.090;-115.340;2023-05-27T13:14:02;86538.20;;;9.40
74539;BMP180;66042;51.090;-115.340;2023-05-27T13:16:29;86539.40;;;9.40
74539;BMP180;66042;51.090;-115.340;2023-05-27T13:18:57;86537.20;;;9.40
74539;BMP180;66042;51.090;-115.340;2023-05-27T13:21:27;86539.00;;;9.40
74539;BMP180;66042;51.090;-115.340;2023-05-27T13:23:54;86537.60;;;9.40
74539;BMP180;66042;51.090;-115.340;2023-05-27T13:26:21;86542.00;;;9.40
74539;BMP180;66042;51.090;-115.340;2023-05-27T13:28:49;86539.20;;;9.40
74539;BMP180;66042;51.090;-115.340;2023-05-27T13:31:16;86540.00;;;9.40
74539;BMP180;66042;51.090;-115.340;2023-05-27T13:33:43;86537.20;;;9.40
74539;BMP180;66042;51.090;-115.340;2023-05-27T13:36:10;86537.20;;;9.40
74539;BMP180;66042;51.090;-115.340;2023-05-27T13:38:36;86535.40;;;9.40
74539;BMP180;66042;51.090;-115.340;2023-05-27T13:41:04;86535.20;;;9.40
74539;BMP180;66042;51.090;-115.340;2023-05-27T13:43:32;86527.60;;;9.40